Time;durP1;ratioP1;P1;durP2;ratioP2;P2;SDS_P1;SDS_P2;PMS_P1;PMS_P2;Temp;Humidity;BMP_temperature;BMP_pressure;BME280_temperature;BME280_humidity;BME280_pressure;Samples;Min_cycle;Max_cycle;Signal;HPM_P1;HPM_P2
2022/04/19 00:02:23;;;;;;;2.88;1.88;;;13.00;97.00;;;;;;6246901;22;21006;-58
2022/04/19 00:04:48;;;;;;;3.87;1.90;;;13.00;97.20;;;;;;6246373;22;20435;-57
2022/04/19 00:07:14;;;;;;;3.10;1.90;;;13.00;97.30;;;;;;6244474;22;20364;-55
2022/04/19 00:09:39;;;;;;;2.20;2.00;;;12.90;97.40;;;;;;6243488;22;20748;-56
2022/04/19 00:12:05;;;;;;;2.67;1.90;;;12.80;97.70;;;;;;6245614;22;20575;-58
2022/04/19 00:14:33;;;;;;;2.55;1.85;;;12.70;97.80;;;;;;6247002;22;20371;-58
2022/04/19 00:16:59;;;;;;;3.80;2.10;;;12.70;98.00;;;;;;6272115;22;20356;-57
2022/04/19 00:19:25;;;;;;;4.03;2.17;;;12.70;98.10;;;;;;6248234;22;20340;-58
2022/04/19 00:21:51;;;;;;;2.97;1.90;;;12.70;98.10;;;;;;6272736;22;20344;-57
2022/04/19 00:24:17;;;;;;;3.10;2.10;;;12.60;98.20;;;;;;6275748;22;20340;-58
2022/04/19 00:26:42;;;;;;;3.50;1.80;;;12.60;98.30;;;;;;6247620;22;20419;-58
2022/04/19 00:29:08;;;;;;;2.22;1.85;;;12.60;98.40;;;;;;6273485;22;20384;-55
2022/04/19 00:31:34;;;;;;;3.10;1.85;;;12.50;98.40;;;;;;6246694;22;20344;-57
2022/04/19 00:34:00;;;;;;;2.35;1.75;;;12.40;98.60;;;;;;6245003;22;20637;-55
2022/04/19 00:36:28;;;;;;;2.55;1.73;;;12.50;99.00;;;;;;6244716;22;20749;-57
2022/04/19 00:38:54;;;;;;;4.15;1.63;;;12.40;99.00;;;;;;6245318;22;20348;-55
2022/04/19 00:41:20;;;;;;;3.20;1.80;;;12.40;99.20;;;;;;6272036;22;20582;-56
2022/04/19 00:43:46;;;;;;;2.57;1.93;;;12.30;99.50;;;;;;6245440;22;20450;-59
2022/04/19 00:46:11;;;;;;;4.20;1.92;;;12.30;99.90;;;;;;6271732;22;20396;-58
2022/04/19 00:48:37;;;;;;;3.60;2.10;;;12.40;99.90;;;;;;6270184;22;20434;-58
2022/04/19 00:51:04;;;;;;;2.70;2.20;;;12.30;99.90;;;;;;6273179;22;20348;-58
2022/04/19 00:53:30;;;;;;;2.50;2.10;;;12.30;99.90;;;;;;6273764;22;20351;-56
2022/04/19 00:55:57;;;;;;;2.53;1.80;;;12.20;99.90;;;;;;6274515;22;20348;-56
2022/04/19 00:58:23;;;;;;;2.03;1.83;;;12.10;99.90;;;;;;6271290;22;20427;-58
2022/04/19 01:00:52;;;;;;;3.17;1.95;;;12.00;99.90;;;;;;6271933;22;20349;-55
2022/04/19 01:03:18;;;;;;;2.25;2.03;;;12.00;99.90;;;;;;6269189;22;20348;-58
2022/04/19 01:05:47;;;;;;;3.60;2.10;;;12.00;99.90;;;;;;6269109;22;20371;-57
2022/04/19 01:08:14;;;;;;;3.07;1.70;;;12.00;99.90;;;;;;6269454;22;20652;-57
2022/04/19 01:10:42;;;;;;;2.33;1.98;;;12.00;99.90;;;;;;6272234;22;20386;-56
2022/04/19 01:13:17;;;;;;;3.73;1.97;;;11.90;99.90;;;;;;6270068;22;20351;-54
2022/04/19 01:15:52;;;;;;;2.95;2.30;;;11.90;99.90;;;;;;6271772;22;20663;-55
2022/04/19 01:18:22;;;;;;;3.85;2.30;;;11.80;99.90;;;;;;6270081;22;20435;-55
2022/04/19 01:20:48;;;;;;;2.65;2.00;;;11.80;99.90;;;;;;6269835;22;20652;-55
2022/04/19 01:23:15;;;;;;;3.45;2.10;;;11.80;99.90;;;;;;6269275;22;20724;-57
2022/04/19 01:25:40;;;;;;;2.78;2.03;;;11.80;99.90;;;;;;6268901;22;20340;-55
2022/04/19 01:28:06;;;;;;;4.20;2.00;;;11.80;99.90;;;;;;6270021;22;20372;-55
2022/04/19 01:30:33;;;;;;;3.78;2.30;;;11.70;99.90;;;;;;6270325;22;20537;-55
2022/04/19 01:32:59;;;;;;;3.03;2.10;;;11.70;99.90;;;;;;6269999;22;20348;-55
2022/04/19 01:35:25;;;;;;;2.40;2.20;;;11.60;99.90;;;;;;6270464;22;20344;-58
2022/04/19 01:37:51;;;;;;;3.63;2.10;;;11.50;99.90;;;;;;6272810;22;20356;-56
2022/04/19 01:40:17;;;;;;;5.38;2.40;;;11.50;99.90;;;;;;6271130;22;20356;-57
2022/04/19 01:42:52;;;;;;;4.97;2.53;;;11.50;99.90;;;;;;6271172;22;20378;-56
2022/04/19 01:45:20;;;;;;;4.13;2.60;;;11.50;99.90;;;;;;6273287;22;20367;-58
2022/04/19 01:47:46;;;;;;;4.40;2.80;;;11.50;99.90;;;;;;6272044;22;20423;-57
2022/04/19 01:50:13;;;;;;;3.70;2.60;;;11.50;99.90;;;;;;6272195;22;20340;-52
2022/04/19 01:52:40;;;;;;;4.35;2.50;;;11.40;99.90;;;;;;6274967;22;20450;-57
2022/04/19 01:55:08;;;;;;;3.40;2.67;;;11.30;99.90;;;;;;6273947;22;20348;-55
2022/04/19 01:57:35;;;;;;;4.30;2.88;;;11.20;99.90;;;;;;6273685;22;20402;-56
2022/04/19 02:00:02;;;;;;;3.60;2.70;;;11.20;99.90;;;;;;6272024;22;20399;-57
2022/04/19 02:02:28;;;;;;;3.47;2.58;;;11.20;99.90;;;;;;6271468;22;20777;-53
2022/04/19 02:04:54;;;;;;;4.30;2.90;;;11.30;99.90;;;;;;6271359;22;20344;-54
2022/04/19 02:07:19;;;;;;;3.85;2.85;;;11.20;99.90;;;;;;6269849;22;20848;-57
2022/04/19 02:09:47;;;;;;;2.90;2.50;;;11.10;99.90;;;;;;6269962;22;20344;-57
2022/04/19 02:12:12;;;;;;;3.75;2.70;;;11.10;99.90;;;;;;6271358;22;20340;-58
2022/04/19 02:14:41;;;;;;;3.28;2.70;;;11.00;99.90;;;;;;6273867;22;20391;-57
2022/04/19 02:17:09;;;;;;;4.00;2.85;;;11.00;99.90;;;;;;6272558;22;20737;-56
2022/04/19 02:19:38;;;;;;;3.53;2.83;;;11.00;99.90;;;;;;6270461;22;20481;-56
2022/04/19 02:22:06;;;;;;;3.78;3.08;;;11.00;99.90;;;;;;6271982;22;20347;-58
2022/04/19 02:24:33;;;;;;;4.35;2.85;;;10.90;99.90;;;;;;6273130;22;20426;-58
2022/04/19 02:26:58;;;;;;;4.65;2.97;;;10.90;99.90;;;;;;6273018;22;20392;-57
2022/04/19 02:29:25;;;;;;;3.80;2.80;;;10.90;99.90;;;;;;6272665;22;20379;-57
2022/04/19 02:31:51;;;;;;;6.28;3.13;;;10.90;99.90;;;;;;6273201;22;20340;-57
2022/04/19 02:34:18;;;;;;;5.35;3.13;;;10.80;99.90;;;;;;6273182;22;20427;-58
2022/04/19 02:36:48;;;;;;;3.88;3.38;;;10.80;99.90;;;;;;6271367;22;20359;-57
2022/04/19 02:39:13;;;;;;;4.28;3.15;;;10.80;99.90;;;;;;6273016;22;20351;-58
2022/04/19 02:41:40;;;;;;;4.30;3.20;;;10.70;99.90;;;;;;6273430;22;20344;-58
2022/04/19 02:44:08;;;;;;;4.43;3.33;;;10.70;99.90;;;;;;6271990;22;20379;-56
2022/04/19 02:46:35;;;;;;;4.80;3.10;;;10.60;99.90;;;;;;6271946;22;20356;-56
2022/04/19 02:49:04;;;;;;;3.45;3.15;;;10.60;99.90;;;;;;6271582;22;20916;-54
2022/04/19 02:51:32;;;;;;;3.45;2.90;;;10.60;99.90;;;;;;6244919;22;20344;-58
2022/04/19 02:53:57;;;;;;;3.50;3.20;;;10.50;99.90;;;;;;6268478;22;20680;-54
2022/04/19 02:56:23;;;;;;;5.17;3.10;;;10.50;99.90;;;;;;6240955;22;20946;-59
2022/04/19 02:58:48;;;;;;;4.07;3.40;;;10.50;99.90;;;;;;6241809;22;20418;-56
2022/04/19 03:01:14;;;;;;;4.25;3.30;;;10.50;99.90;;;;;;6241428;22;20401;-58
2022/04/19 03:03:39;;;;;;;5.07;3.40;;;10.40;99.90;;;;;;6243337;22;20442;-58
2022/04/19 03:06:05;;;;;;;6.18;4.10;;;10.40;99.90;;;;;;6269572;22;20345;-58
2022/04/19 03:08:33;;;;;;;3.93;3.53;;;10.30;99.90;;;;;;6243279;22;20379;-58
2022/04/19 03:10:59;;;;;;;4.10;3.50;;;10.30;99.90;;;;;;6243247;22;20348;-57
2022/04/19 03:13:27;;;;;;;4.68;3.67;;;10.30;99.90;;;;;;6243914;22;20563;-59
2022/04/19 03:16:21;;;;;;;4.15;3.53;;;10.30;99.90;;;;;;6244841;22;20402;-59
2022/04/19 03:19:05;;;;;;;4.50;3.70;;;10.20;99.90;;;;;;6243448;22;20340;-59
2022/04/19 03:21:48;;;;;;;4.45;3.33;;;10.20;99.90;;;;;;6241926;22;20339;-58
2022/04/19 03:28:17;;;;;;;4.60;3.50;;;10.20;99.90;;;;;;6271708;22;20541;-59
2022/04/19 03:30:43;;;;;;;4.20;3.58;;;10.20;99.90;;;;;;6270788;22;20461;-60
2022/04/19 03:33:08;;;;;;;4.18;3.38;;;10.20;99.90;;;;;;6244639;22;20358;-59
2022/04/19 03:35:36;;;;;;;6.33;3.83;;;10.10;99.90;;;;;;6246307;22;20367;-59
2022/04/19 03:38:05;;;;;;;4.32;3.30;;;10.10;99.90;;;;;;6247435;22;20351;-58
2022/04/19 03:40:31;;;;;;;6.18;3.65;;;10.10;99.90;;;;;;6246290;22;20341;-59
2022/04/19 03:42:56;;;;;;;4.95;3.55;;;10.00;99.90;;;;;;6248485;22;20410;-59
2022/04/19 03:45:22;;;;;;;4.72;3.50;;;9.90;99.90;;;;;;6246623;22;20340;-59
2022/04/19 03:47:49;;;;;;;6.20;3.97;;;9.90;99.90;;;;;;6271706;22;20800;-59
2022/04/19 03:50:16;;;;;;;4.32;3.83;;;9.80;99.90;;;;;;6243922;22;20348;-57
2022/04/19 03:53:16;;;;;;;6.07;3.83;;;9.80;99.90;;;;;;6274529;22;20352;-59
2022/04/19 03:55:41;;;;;;;5.97;4.10;;;9.80;99.90;;;;;;6243279;22;20476;-57
2022/04/19 03:58:07;;;;;;;5.87;3.60;;;9.80;99.90;;;;;;6242877;22;20443;-58
2022/04/19 04:00:32;;;;;;;4.57;3.80;;;9.80;99.90;;;;;;6242466;22;20606;-58
2022/04/19 04:02:57;;;;;;;4.27;3.60;;;9.80;99.90;;;;;;6268131;22;20348;-57
2022/04/19 04:05:24;;;;;;;4.50;3.65;;;9.80;99.90;;;;;;6242997;22;20373;-58
2022/04/19 04:07:57;;;;;;;3.57;3.27;;;9.70;99.90;;;;;;6268943;22;20455;-59
2022/04/19 04:10:22;;;;;;;4.80;3.60;;;9.70;99.90;;;;;;6268981;22;20372;-57
2022/04/19 04:12:48;;;;;;;4.63;3.70;;;9.70;99.90;;;;;;6243802;22;20358;-58
2022/04/19 04:15:13;;;;;;;4.43;3.50;;;9.70;99.90;;;;;;6243889;22;20430;-59
2022/04/19 04:17:39;;;;;;;5.13;3.90;;;9.70;99.90;;;;;;6243738;22;20390;-54
2022/04/19 04:20:05;;;;;;;5.72;3.65;;;9.70;99.90;;;;;;6244754;22;20494;-56
2022/04/19 04:22:30;;;;;;;5.60;3.70;;;9.70;99.90;;;;;;6243592;22;20375;-58
2022/04/19 04:24:56;;;;;;;4.67;3.50;;;9.60;99.90;;;;;;6244258;22;20352;-56
2022/04/19 04:27:22;;;;;;;5.43;4.10;;;9.60;99.90;;;;;;6270436;22;20433;-59
2022/04/19 04:29:47;;;;;;;4.47;3.70;;;9.60;99.90;;;;;;6245097;22;20722;-59
2022/04/19 04:32:13;;;;;;;4.70;3.70;;;9.60;99.90;;;;;;6244689;22;20344;-57
2022/04/19 04:34:39;;;;;;;4.90;3.60;;;9.50;99.90;;;;;;6243973;22;20783;-59
2022/04/19 04:37:05;;;;;;;5.40;3.90;;;9.60;99.90;;;;;;6272426;22;20403;-59
2022/04/19 04:39:30;;;;;;;3.97;3.60;;;9.60;99.90;;;;;;6243947;22;20410;-56
2022/04/19 04:41:56;;;;;;;4.73;3.33;;;9.50;99.90;;;;;;6246123;22;20459;-59
2022/04/19 04:44:21;;;;;;;6.28;3.97;;;9.50;99.90;;;;;;6246585;22;20348;-59
2022/04/19 04:49:36;;;;;;;5.37;4.00;;;9.50;99.90;;;;;;6267287;22;20390;-59
2022/04/19 04:52:13;;;;;;;4.10;3.67;;;9.50;99.90;;;;;;6240005;22;20360;-57
2022/04/19 04:54:40;;;;;;;4.82;3.92;;;9.50;99.90;;;;;;6249665;22;20344;-59
2022/04/19 04:57:07;;;;;;;5.15;3.80;;;9.50;99.90;;;;;;6240587;22;20356;-59
2022/04/19 04:59:34;;;;;;;6.40;4.03;;;9.50;99.90;;;;;;6240084;22;20351;-57
2022/04/19 05:02:00;;;;;;;4.40;3.67;;;9.60;99.90;;;;;;6239267;22;20384;-57
2022/04/19 05:04:26;;;;;;;4.80;4.00;;;9.50;99.90;;;;;;6264455;22;20340;-59
2022/04/19 05:06:52;;;;;;;5.85;3.67;;;9.50;99.90;;;;;;6239498;22;20403;-59
2022/04/19 05:09:18;;;;;;;4.43;3.57;;;9.50;99.90;;;;;;6240077;22;20394;-55
2022/04/19 05:11:46;;;;;;;5.43;3.78;;;9.60;99.90;;;;;;6268295;22;20761;-57
2022/04/19 05:14:12;;;;;;;7.73;3.40;;;9.60;99.90;;;;;;6242016;22;20754;-59
2022/04/19 05:16:38;;;;;;;4.28;3.58;;;9.60;99.90;;;;;;6241324;22;20352;-58
2022/04/19 05:19:04;;;;;;;4.10;3.50;;;9.70;99.90;;;;;;6267341;22;20336;-58
2022/04/19 05:21:29;;;;;;;3.80;3.13;;;9.70;99.90;;;;;;6270650;22;20367;-59
2022/04/19 05:23:55;;;;;;;4.70;3.20;;;9.70;99.90;;;;;;6268615;22;20344;-59
2022/04/19 05:26:28;;;;;;;5.27;3.13;;;9.70;99.90;;;;;;6241862;22;20372;-54
2022/04/19 05:28:54;;;;;;;3.67;3.10;;;9.80;99.90;;;;;;6266041;22;20360;-59
2022/04/19 05:31:19;;;;;;;5.35;3.20;;;9.80;99.90;;;;;;6239430;22;20333;-59
2022/04/19 05:33:45;;;;;;;4.10;3.08;;;9.80;99.90;;;;;;6239533;22;20355;-59
2022/04/19 05:36:12;;;;;;;4.67;2.90;;;9.90;99.90;;;;;;6238412;22;20352;-58
2022/04/19 05:38:38;;;;;;;4.75;3.00;;;9.90;99.90;;;;;;6265498;22;20713;-59
2022/04/19 05:41:03;;;;;;;4.90;3.00;;;10.00;99.90;;;;;;6238785;22;20571;-59
2022/04/19 05:43:30;;;;;;;3.63;3.20;;;10.00;99.90;;;;;;6236193;22;20394;-59
2022/04/19 05:45:57;;;;;;;3.40;3.00;;;10.00;99.90;;;;;;6235823;22;20352;-57
2022/04/19 05:48:23;;;;;;;4.37;3.00;;;10.00;99.90;;;;;;6255444;22;20445;-57
2022/04/19 05:50:49;;;;;;;3.20;2.90;;;10.00;99.90;;;;;;6263795;22;20423;-58
2022/04/19 05:53:15;;;;;;;4.30;3.40;;;10.10;99.90;;;;;;6263644;22;20344;-58
2022/04/19 05:55:40;;;;;;;3.85;2.80;;;10.10;99.90;;;;;;6259848;22;20351;-56
2022/04/19 05:58:06;;;;;;;3.80;2.90;;;10.10;99.90;;;;;;6259681;22;20630;-57
2022/04/19 06:00:31;;;;;;;3.00;2.70;;;10.10;99.90;;;;;;6258258;22;20356;-59
2022/04/19 06:05:41;;;;;;;2.83;2.53;;;10.20;99.90;;;;;;6258368;22;20418;-57
2022/04/19 06:08:07;;;;;;;3.42;2.85;;;10.30;99.90;;;;;;6255906;22;20368;-56
2022/04/19 06:10:32;;;;;;;3.40;2.83;;;10.30;99.90;;;;;;6258318;22;20349;-57
2022/04/19 06:12:58;;;;;;;3.70;2.70;;;10.30;99.90;;;;;;6257730;22;20527;-59
2022/04/19 06:15:23;;;;;;;3.03;2.63;;;10.30;99.90;;;;;;6255493;22;20439;-59
2022/04/19 06:17:49;;;;;;;3.58;2.90;;;10.20;99.90;;;;;;6255097;22;20673;-58
2022/04/19 06:20:15;;;;;;;3.80;2.90;;;10.30;99.90;;;;;;6256080;22;20387;-59
2022/04/19 06:22:41;;;;;;;4.47;3.10;;;10.30;99.90;;;;;;6256878;22;20629;-56
2022/04/19 06:25:07;;;;;;;4.90;3.17;;;10.30;99.90;;;;;;6257079;22;20344;-59
2022/04/19 06:27:32;;;;;;;3.58;3.10;;;10.20;99.90;;;;;;6258354;22;20406;-61
2022/04/19 06:29:58;;;;;;;4.67;3.50;;;10.20;99.90;;;;;;6261378;22;20423;-59
2022/04/19 06:32:25;;;;;;;4.05;3.63;;;10.20;99.90;;;;;;6261723;22;20501;-59
2022/04/19 06:34:50;;;;;;;4.55;3.85;;;10.10;99.90;;;;;;6261546;22;20358;-58
2022/04/19 06:37:16;;;;;;;4.67;4.17;;;10.20;99.90;;;;;;6262323;22;20399;-59
2022/04/19 06:39:41;;;;;;;4.83;3.80;;;10.20;99.90;;;;;;6261299;22;20363;-59
2022/04/19 06:42:07;;;;;;;6.70;4.50;;;10.20;99.90;;;;;;6261684;22;20448;-58
2022/04/19 06:44:33;;;;;;;4.70;4.10;;;10.30;99.90;;;;;;6262464;22;20362;-57
2022/04/19 06:46:59;;;;;;;4.50;3.85;;;10.30;99.90;;;;;;6262610;22;20599;-58
2022/04/19 06:49:25;;;;;;;4.60;3.58;;;10.30;99.90;;;;;;6263593;22;20751;-57
2022/04/19 06:51:50;;;;;;;4.95;3.78;;;10.40;99.90;;;;;;6261021;22;20654;-58
2022/04/19 06:54:16;;;;;;;5.93;3.90;;;10.30;99.90;;;;;;6262686;22;20367;-58
2022/04/19 06:56:45;;;;;;;5.50;3.60;;;10.40;99.90;;;;;;6261467;22;20653;-58
2022/04/19 06:59:11;;;;;;;5.15;3.03;;;10.50;99.90;;;;;;6259147;22;20483;-58
2022/04/19 07:01:38;;;;;;;4.22;2.75;;;10.50;99.90;;;;;;6259629;22;20591;-59
2022/04/19 07:04:04;;;;;;;5.22;3.50;;;10.60;99.90;;;;;;6258749;22;20410;-56
2022/04/19 07:06:29;;;;;;;3.90;3.40;;;10.80;99.90;;;;;;6257357;22;20380;-55
2022/04/19 07:08:55;;;;;;;4.37;3.60;;;10.70;99.90;;;;;;6257802;22;20636;-57
2022/04/19 07:11:20;;;;;;;5.20;3.45;;;10.70;99.90;;;;;;6255762;22;20383;-56
2022/04/19 07:13:46;;;;;;;3.40;2.80;;;10.80;99.90;;;;;;6255708;22;20347;-59
2022/04/19 07:16:11;;;;;;;3.50;2.57;;;10.80;99.90;;;;;;6254955;22;20359;-58
2022/04/19 07:18:37;;;;;;;4.68;2.97;;;10.90;99.90;;;;;;6256515;22;20424;-56
2022/04/19 07:26:47;;;;;;;5.00;2.80;;;11.00;99.90;;;;;;6257107;22;20643;-59
2022/04/19 07:29:18;;;;;;;3.10;2.53;;;11.00;99.90;;;;;;6256333;22;20733;-57
2022/04/19 07:31:45;;;;;;;4.57;2.80;;;11.10;99.90;;;;;;6256750;22;20451;-58
2022/04/19 07:34:11;;;;;;;4.40;3.17;;;11.30;99.90;;;;;;6259088;22;20426;-58
2022/04/19 07:36:40;;;;;;;2.88;2.47;;;11.30;99.90;;;;;;6259662;22;20455;-58
2022/04/19 07:39:10;;;;;;;3.33;2.60;;;11.30;99.90;;;;;;6255834;22;20362;-57
2022/04/19 07:41:37;;;;;;;4.45;3.25;;;11.40;99.90;;;;;;6258045;22;20552;-58
2022/04/19 07:44:02;;;;;;;4.82;3.30;;;11.40;99.90;;;;;;6257880;22;20352;-59
2022/04/19 07:46:28;;;;;;;3.75;3.30;;;11.40;99.90;;;;;;6255276;22;20376;-56
2022/04/19 07:48:54;;;;;;;5.28;3.80;;;11.40;99.90;;;;;;6230543;22;20396;-58
2022/04/19 07:51:20;;;;;;;4.57;3.60;;;11.50;99.90;;;;;;6257527;22;20348;-58
2022/04/19 07:53:46;;;;;;;5.63;4.00;;;11.50;99.90;;;;;;6232418;22;20513;-58
2022/04/19 07:56:11;;;;;;;5.30;4.63;;;11.50;99.90;;;;;;6230950;22;20405;-56
2022/04/19 07:58:37;;;;;;;6.63;5.35;;;11.60;99.90;;;;;;6231422;22;20419;-58
2022/04/19 08:01:03;;;;;;;5.77;4.73;;;11.60;99.90;;;;;;6233476;22;20345;-57
2022/04/19 08:03:28;;;;;;;5.93;4.53;;;11.60;99.90;;;;;;6233596;22;20356;-59
2022/04/19 08:05:54;;;;;;;5.82;4.90;;;11.70;99.90;;;;;;6233731;22;20645;-55
2022/04/19 08:08:21;;;;;;;7.53;4.43;;;11.80;99.90;;;;;;6233255;22;20524;-55
2022/04/19 08:10:47;;;;;;;5.07;3.77;;;11.90;99.90;;;;;;6232571;22;20428;-56
2022/04/19 08:13:13;;;;;;;4.32;3.20;;;12.00;99.90;;;;;;6235422;22;20811;-58
2022/04/19 08:15:39;;;;;;;3.65;2.40;;;12.10;99.90;;;;;;6259190;22;20492;-56
2022/04/19 08:18:05;;;;;;;3.37;2.27;;;12.10;99.90;;;;;;6232134;22;20356;-56
2022/04/19 08:20:30;;;;;;;2.20;2.00;;;12.20;99.90;;;;;;6232176;22;20437;-58
2022/04/19 08:22:56;;;;;;;2.47;2.00;;;12.20;99.90;;;;;;6233548;22;20352;-59
2022/04/19 08:25:22;;;;;;;3.58;2.10;;;12.20;99.90;;;;;;6232538;22;20545;-57
2022/04/19 08:27:47;;;;;;;2.70;2.00;;;12.30;99.90;;;;;;6232023;22;20922;-60
2022/04/19 08:30:17;;;;;;;2.80;2.00;;;12.30;99.90;;;;;;6231462;22;20577;-59
2022/04/19 08:32:45;;;;;;;2.25;1.73;;;12.40;99.90;;;;;;6231565;22;20344;-59
2022/04/19 08:35:11;;;;;;;3.60;2.05;;;12.40;99.90;;;;;;6234018;22;20344;-58
2022/04/19 08:37:36;;;;;;;4.53;1.90;;;12.40;99.90;;;;;;6233270;22;20439;-58
2022/04/19 08:40:04;;;;;;;2.38;1.65;;;12.40;99.90;;;;;;6238370;22;20386;-58
2022/04/19 08:42:30;;;;;;;3.67;2.00;;;12.60;99.90;;;;;;6271089;22;20387;-55
2022/04/19 08:44:58;;;;;;;1.92;1.60;;;12.60;99.90;;;;;;6241377;22;20348;-57
2022/04/19 08:47:25;;;;;;;2.42;1.92;;;12.70;99.90;;;;;;6246999;22;20475;-58
2022/04/19 08:49:54;;;;;;;2.37;1.87;;;12.70;99.90;;;;;;6262046;22;20431;-56
2022/04/19 08:52:20;;;;;;;3.90;2.53;;;12.80;99.90;;;;;;6263003;22;20367;-58
2022/04/19 08:57:33;;;;;;;3.03;1.92;;;12.80;99.90;;;;;;6264073;22;21032;-58
2022/04/19 09:00:00;;;;;;;3.28;2.28;;;12.90;99.90;;;;;;6264866;22;20351;-56
2022/04/19 09:02:29;;;;;;;3.07;1.90;;;12.90;99.90;;;;;;6267336;22;20439;-55
2022/04/19 09:05:11;;;;;;;3.35;2.05;;;13.00;99.90;;;;;;6264009;22;20352;-55
2022/04/19 09:07:37;;;;;;;4.13;2.30;;;13.20;99.90;;;;;;6262037;22;20372;-56
2022/04/19 09:10:04;;;;;;;3.08;2.17;;;13.20;99.90;;;;;;6265149;22;20348;-52
2022/04/19 09:12:29;;;;;;;4.93;2.80;;;13.30;99.90;;;;;;6260078;22;20368;-55
2022/04/19 09:15:06;;;;;;;3.40;2.40;;;13.40;99.90;;;;;;6260993;22;20413;-55
2022/04/19 09:17:38;;;;;;;3.53;2.70;;;13.40;99.90;;;;;;6272506;22;20348;-59
2022/04/19 09:20:18;;;;;;;3.60;2.73;;;13.50;99.90;;;;;;6269700;22;20426;-55
2022/04/19 09:22:45;;;;;;;4.88;2.97;;;13.50;99.90;;;;;;6269285;22;20360;-58
2022/04/19 09:25:24;;;;;;;5.03;2.97;;;13.60;99.90;;;;;;6270400;22;20433;-58
2022/04/19 09:27:50;;;;;;;4.45;3.15;;;13.60;99.90;;;;;;6269826;22;20594;-59
2022/04/19 09:30:16;;;;;;;6.20;3.55;;;13.60;99.90;;;;;;6267610;22;21037;-57
2022/04/19 09:32:41;;;;;;;6.43;3.45;;;13.70;99.90;;;;;;6267974;22;20344;-59
2022/04/19 09:35:08;;;;;;;4.30;3.00;;;13.70;99.90;;;;;;6268957;22;20366;-59
2022/04/19 09:37:34;;;;;;;6.27;3.60;;;13.80;99.90;;;;;;6268260;22;20372;-59
2022/04/19 09:39:59;;;;;;;8.37;3.87;;;13.90;99.90;;;;;;6268598;22;20990;-59
2022/04/19 09:42:26;;;;;;;5.00;3.60;;;13.90;99.90;;;;;;6270360;22;20362;-59
2022/04/19 09:44:52;;;;;;;4.30;3.30;;;13.90;99.90;;;;;;6269997;22;20422;-56
2022/04/19 09:47:17;;;;;;;4.67;3.20;;;13.90;99.90;;;;;;6270479;22;20463;-59
2022/04/19 09:49:52;;;;;;;5.77;3.23;;;14.00;99.90;;;;;;6268678;22;20352;-58
2022/04/19 09:52:21;;;;;;;4.85;3.03;;;14.10;99.90;;;;;;6265734;22;20367;-58
2022/04/19 09:55:06;;;;;;;6.13;3.50;;;14.10;99.90;;;;;;6268057;22;20351;-58
2022/04/19 09:57:35;;;;;;;5.38;3.20;;;14.20;99.90;;;;;;6269641;22;20359;-58
2022/04/19 10:00:01;;;;;;;4.95;3.40;;;14.20;99.90;;;;;;6266891;22;20437;-57
2022/04/19 10:08:13;;;;;;;4.25;2.63;;;14.40;99.90;;;;;;6269013;22;20430;-57
2022/04/19 10:10:39;;;;;;;5.43;3.07;;;14.40;99.90;;;;;;6268133;22;20508;-58
2022/04/19 10:13:06;;;;;;;4.07;2.80;;;14.40;99.90;;;;;;6267075;22;21042;-59
2022/04/19 10:15:32;;;;;;;2.95;2.08;;;14.40;99.90;;;;;;6267725;22;20344;-59
2022/04/19 10:17:59;;;;;;;5.57;2.58;;;14.40;99.90;;;;;;6267862;22;20344;-57
2022/04/19 10:20:31;;;;;;;3.30;2.30;;;14.40;99.90;;;;;;6268295;22;20348;-59
2022/04/19 10:23:04;;;;;;;3.70;2.25;;;14.50;99.90;;;;;;6265402;22;20352;-60
2022/04/19 10:25:44;;;;;;;3.65;2.65;;;14.60;99.90;;;;;;6268692;22;20424;-60
2022/04/19 10:28:12;;;;;;;4.20;2.60;;;14.60;99.90;;;;;;6268441;22;20466;-59
2022/04/19 10:30:39;;;;;;;3.03;2.13;;;14.60;99.90;;;;;;6268859;22;20718;-60
2022/04/19 10:33:42;;;;;;;2.93;2.33;;;14.70;99.90;;;;;;6266887;22;20340;-59
2022/04/19 10:36:22;;;;;;;3.00;1.95;;;14.70;99.90;;;;;;6266146;22;21098;-59
2022/04/19 10:39:13;;;;;;;4.05;2.30;;;14.70;99.90;;;;;;6266046;22;20370;-59
2022/04/19 10:41:47;;;;;;;4.97;2.47;;;14.80;99.90;;;;;;6266053;22;20344;-60
2022/04/19 10:44:26;;;;;;;5.68;2.58;;;14.90;99.90;;;;;;6263920;22;20430;-58
2022/04/19 10:47:31;;;;;;;4.43;2.50;;;14.90;99.90;;;;;;6260670;22;21008;-60
2022/04/19 10:50:03;;;;;;;3.75;2.10;;;15.00;99.90;;;;;;6145932;23;20360;-59
2022/04/19 10:52:40;;;;;;;2.47;1.98;;;15.00;99.90;;;;;;6144969;23;20371;-58
2022/04/19 10:55:17;;;;;;;3.50;2.08;;;15.00;99.90;;;;;;6212194;22;20371;-57
2022/04/19 11:00:54;;;;;;;4.03;2.35;;;15.00;99.90;;;;;;6264541;22;20827;-59
2022/04/19 11:03:39;;;;;;;3.47;2.00;;;15.10;99.90;;;;;;6264069;22;20437;-59
2022/04/19 11:06:10;;;;;;;3.20;2.03;;;15.30;99.90;;;;;;6263564;22;20777;-57
2022/04/19 11:08:37;;;;;;;3.88;1.90;;;15.40;99.90;;;;;;6266687;22;20374;-58
2022/04/19 11:11:02;;;;;;;3.40;1.73;;;15.70;99.90;;;;;;6267518;22;20336;-58
2022/04/19 11:13:35;;;;;;;3.53;1.92;;;16.00;99.90;;;;;;6268009;22;20344;-60
2022/04/19 11:16:05;;;;;;;2.33;1.77;;;16.10;99.90;;;;;;6268949;22;20395;-58
2022/04/19 11:18:53;;;;;;;2.67;1.83;;;16.40;99.90;;;;;;6268005;22;20435;-60
2022/04/19 11:21:46;;;;;;;2.67;1.60;;;16.60;99.90;;;;;;6268539;22;20498;-60
2022/04/19 11:24:11;;;;;;;3.80;2.00;;;16.90;99.90;;;;;;6266264;22;20340;-59
2022/04/19 11:26:41;;;;;;;4.47;2.15;;;17.10;99.90;;;;;;6267816;22;20375;-59
2022/04/19 11:29:09;;;;;;;4.25;2.03;;;17.50;99.90;;;;;;6266975;22;20340;-59
2022/04/19 11:31:36;;;;;;;4.75;1.65;;;17.80;99.90;;;;;;6267905;22;20335;-59
2022/04/19 11:34:10;;;;;;;2.58;1.60;;;18.00;99.90;;;;;;6264483;22;20587;-59
2022/04/19 11:36:36;;;;;;;3.10;1.45;;;18.30;99.90;;;;;;6263447;22;20447;-59
2022/04/19 11:39:02;;;;;;;3.67;1.37;;;18.50;99.90;;;;;;6265817;22;20352;-59
2022/04/19 11:46:58;;;;;;;1.40;1.15;;;19.00;99.90;;;;;;6262416;22;20403;-59
2022/04/19 11:49:34;;;;;;;1.40;0.90;;;19.10;99.90;;;;;;6235712;22;20982;-57
2022/04/19 11:52:11;;;;;;;1.30;1.00;;;19.40;99.90;;;;;;6262137;22;20403;-58
2022/04/19 11:54:37;;;;;;;2.20;1.10;;;19.40;99.90;;;;;;6235635;22;20348;-59
2022/04/19 11:57:10;;;;;;;2.75;1.15;;;19.50;99.90;;;;;;6232300;22;20356;-56
2022/04/19 11:59:38;;;;;;;1.73;1.10;;;19.50;99.90;;;;;;6232278;22;20356;-58
2022/04/19 12:02:10;;;;;;;1.13;0.93;;;19.40;99.90;;;;;;6231971;22;20359;-59
2022/04/19 12:04:36;;;;;;;1.38;1.00;;;19.40;99.90;;;;;;6232033;22;20356;-57
2022/04/19 12:07:02;;;;;;;1.60;1.00;;;19.30;99.90;;;;;;6260665;22;20379;-59
2022/04/19 12:09:32;;;;;;;1.20;0.80;;;19.30;99.90;;;;;;6263154;22;20344;-58
2022/04/19 12:11:57;;;;;;;1.33;1.00;;;19.40;99.90;;;;;;6236312;22;20352;-57
2022/04/19 12:14:30;;;;;;;1.63;1.08;;;19.50;99.90;;;;;;6236634;22;20452;-58
2022/04/19 12:16:57;;;;;;;1.40;0.70;;;19.40;99.40;;;;;;6238340;22;20356;-57
2022/04/19 12:19:42;;;;;;;1.63;0.70;;;19.20;99.00;;;;;;6235728;22;20375;-57
2022/04/19 12:22:21;;;;;;;1.05;0.90;;;19.30;98.60;;;;;;6237280;22;20364;-59
2022/04/19 12:24:58;;;;;;;0.80;0.63;;;19.30;97.60;;;;;;6239165;22;20356;-59
2022/04/19 12:27:37;;;;;;;1.05;0.70;;;19.30;97.10;;;;;;6238433;22;20455;-57
2022/04/19 12:30:11;;;;;;;1.10;0.60;;;19.70;97.50;;;;;;6261814;22;20347;-59
2022/04/19 12:32:59;;;;;;;0.98;0.65;;;20.10;96.20;;;;;;6235552;22;20352;-59
2022/04/19 12:35:35;;;;;;;3.80;0.60;;;20.30;95.60;;;;;;6240446;22;20344;-59
2022/04/19 12:38:04;;;;;;;1.80;0.57;;;20.30;93.70;;;;;;6267100;22;20348;-58
2022/04/19 12:40:30;;;;;;;1.58;0.70;;;20.40;92.70;;;;;;6240355;22;20356;-57
2022/04/19 12:42:55;;;;;;;1.27;0.50;;;20.50;92.10;;;;;;6263575;22;20778;-58
2022/04/19 12:45:21;;;;;;;0.90;0.60;;;20.80;92.30;;;;;;6230607;22;20424;-59
2022/04/19 12:47:48;;;;;;;0.70;0.60;;;21.00;91.20;;;;;;6241806;22;20462;-58
2022/04/19 12:50:22;;;;;;;0.60;0.47;;;21.10;91.00;;;;;;6251699;22;20344;-57
2022/04/19 12:52:47;;;;;;;0.50;0.50;;;21.40;90.90;;;;;;6252530;22;20348;-57
2022/04/19 12:55:14;;;;;;;0.77;0.50;;;21.30;90.10;;;;;;6252983;22;20683;-59
2022/04/19 13:01:04;;;;;;;0.85;0.80;;;21.70;89.30;;;;;;6256726;22;20535;-59
2022/04/19 13:03:30;;;;;;;1.02;0.70;;;22.00;88.30;;;;;;6255728;22;20581;-59
2022/04/19 13:14:09;;;;;;;2.38;0.77;;;22.00;80.00;;;;;;6256296;22;20605;-59
2022/04/19 13:16:34;;;;;;;2.50;0.80;;;21.70;80.80;;;;;;6258614;22;20336;-59
2022/04/19 13:19:00;;;;;;;1.25;0.75;;;21.60;81.50;;;;;;6258078;22;20752;-58
2022/04/19 13:21:26;;;;;;;3.93;0.80;;;21.90;80.60;;;;;;6259851;22;20452;-59
2022/04/19 13:23:51;;;;;;;1.65;0.70;;;22.00;81.00;;;;;;6256642;22;20644;-57
2022/04/19 13:26:17;;;;;;;1.10;0.90;;;22.10;79.60;;;;;;6259274;22;20804;-59
2022/04/19 13:28:43;;;;;;;1.10;0.70;;;22.10;77.70;;;;;;6259296;22;20559;-60
2022/04/19 13:31:08;;;;;;;2.08;0.70;;;22.30;77.90;;;;;;6261582;22;20551;-57
2022/04/19 13:33:34;;;;;;;0.60;0.60;;;22.30;78.10;;;;;;6264700;22;20356;-59
2022/04/19 13:35:59;;;;;;;0.85;0.75;;;22.30;76.70;;;;;;6266765;22;20352;-59
2022/04/19 13:38:25;;;;;;;1.20;0.67;;;22.40;74.60;;;;;;6267891;22;20503;-59